25VA weather

Toddsbury Farm Airport
Aylett, Virginia, United States

Public forecast

Using degrees Fahrenheit for public forecast. Weather courtesy of forecast.io.

METAR (pilot weather report)

Closest report is Tappahannock-Essex County Airport, 10.2 nm (18.9 km) ENE. Retrieved 2019/01/17 08:35 UTC (2 minutes ago):

KXSA 170835Z AUTO 00000KT 10SM OVC042 M01/M01 A3033 RMK AO2 T10121014

TAF (pilot weather forecast)

Closest forecast is Richmond International Airport, 21.4 nm (39.6 km) SSW. Retrieved 2019/01/17 06:22 UTC (2 hours ago):

TAF KRIC 170520Z 1706/1806 00000KT P6SM SCT050 FM171400 05004KT P6SM BKN080 FM172200 13004KT P6SM OVC060 FM180200 16004KT 6SM -RA OVC060 FM180500 17005KT 6SM -RA OVC030